Terminal Aerodrome Forecast
Issued by NWS Detroit/Pontiac, MI

Home | Current Version | Previous Version | Text Only | Print | Product List | Glossary On
Versions: 1 2 3 4 5 6 7 8 9 10 11 12 13 14 15 16 17 18 19 20 21 22 23 24 25 26 27 28 29 30 31
000
FTUS43 KDTX 131120
TAFDTW
TAF
KDTW 131120Z 1312/1418 22006KT P6SM BKN035 OVC045
     FM131500 18007KT 6SM -SN OVC025
     FM131800 14010KT 1SM -SN OVC018
     FM132100 12012KT 1/4SM +SN OVC006
     FM140200 04007KT 2SM -SHSN OVC012
     FM140500 35008KT P6SM BKN045
     FM141200 33009KT P6SM FEW050 SCT100=

USA.gov is the U.S. government's official web portal to all federal, state and local government web resources and services.